Aeroporto :
LOGIN :

Iscrizione | Disclaimer

   EN    FR    IT 

 










Sommario :    VFR   VFR Marginale   IFR   IFR Intensivo   IFR Molto Intensivo
Visibilità : 
Base nubi : 
>= 8 km
>= 3000ft
5 / 8 km
1000 / 3000 ft
1500m / 5 km
500 / 1000 ft
800 / 1500m
200 / 500 ft
< 800m
< 200 ft
Simboli :   Temporali  Nebbia  Neve Forte  Precipitazioni Forti  Vento > 20 kt
SIGMETs :   Varie  Temporali  Ghiacco  Turbolenza  Onda orograficha  Ceneri Vulcaniche






- Altitudine del aeroporto : 125 ft
- Codice IATA : MGL


EDLN - Mönchengladbach

ULTIMO METAR :
  • 200620Z AUTO 00000KT 3700 // ///////// M01/M01 Q1019

METARs OBSOLETI :
  • 200550Z AUTO VRB01KT 4300 // ///////// M00/M00 Q1019
  • 200520Z AUTO VRB01KT 5000 // SCT029/// OVC034/// M00/M00 Q1019
  • 200450Z AUTO VRB02KT 4300 // SCT001/// SCT003/// OVC031/// M00/M00 Q1019
  • 200420Z AUTO VRB02KT 0600 R31/0700N // VV001 M01/M01 Q1019
  • 200350Z AUTO 12005KT 0500 R31/0600D // VV001 M01/M01 Q1019

Previsioni scadute.



MetMap, La meteo Aeronautica in un colpo d'occhio ! - Copyright ORBIFLY Dicembre 2007 - Disclaimer

ORBIFLY MET'MAP TEAM :

Programmazione e sviluppo : Alexandra Zaïnal
Concezione e sviluppo : Baudouin d'Aumeries
Co-Programmazione e sviluppo : Marc-Olivier Méhu
Supporto tecnico e logistico : Manuel Goepfert
Aiuto per la traduzione : Arnaldo La Scala

Contatto : metmap@orbifly.com




FONTI E CREDITI :

   NOAA